createdAt,value
2023-05-08T00:01:24.559Z,22.67
2023-05-08T00:03:56.300Z,20.20
2023-05-08T00:06:28.891Z,20.57
2023-05-08T00:08:59.719Z,22.22
2023-05-08T00:11:34.859Z,21.10
2023-05-08T00:14:05.788Z,22.62
2023-05-08T00:16:37.065Z,24.40
2023-05-08T00:19:08.011Z,23.42
2023-05-08T00:21:38.742Z,23.75
2023-05-08T00:24:09.940Z,25.27
2023-05-08T00:26:40.676Z,23.47
2023-05-08T00:29:12.564Z,23.47
2023-05-08T00:31:43.475Z,24.85
2023-05-08T00:34:14.333Z,23.52
2023-05-08T00:36:45.082Z,24.92
2023-05-08T00:39:15.808Z,24.70
2023-05-08T00:41:46.594Z,23.77
2023-05-08T00:44:17.329Z,24.98
2023-05-08T00:46:48.642Z,24.70
2023-05-08T00:49:19.756Z,24.27
2023-05-08T00:51:52.337Z,24.47
2023-05-08T00:54:29.891Z,23.98
2023-05-08T00:57:00.839Z,23.62
2023-05-08T00:59:31.920Z,24.70
2023-05-08T01:02:03.886Z,25.75
2023-05-08T01:04:35.633Z,24.77
2023-05-08T01:07:06.715Z,25.02
2023-05-08T01:09:37.728Z,25.40
2023-05-08T01:12:17.256Z,26.02
2023-05-08T01:15:20.873Z,27.22
2023-05-08T01:18:05.784Z,29.05
2023-05-08T01:20:55.601Z,24.02
2023-05-08T01:23:57.544Z,21.60
2023-05-08T01:26:52.160Z,19.07
2023-05-08T01:29:55.531Z,20.43
2023-05-08T01:32:45.182Z,21.50
2023-05-08T01:35:33.114Z,21.57
2023-05-08T01:38:22.817Z,21.45
2023-05-08T01:41:14.545Z,18.05
2023-05-08T01:43:57.000Z,19.05
2023-05-08T01:46:37.904Z,18.30
2023-05-08T01:49:15.946Z,18.32
2023-05-08T01:52:04.215Z,15.68
2023-05-08T01:54:40.232Z,12.90
2023-05-08T01:57:13.134Z,11.95
2023-05-08T01:59:45.130Z,10.53
2023-05-08T02:02:17.369Z,10.65
2023-05-08T02:04:49.152Z,8.78
2023-05-08T02:07:21.412Z,7.80
2023-05-08T02:09:53.504Z,8.23
2023-05-08T02:12:25.064Z,6.75
2023-05-08T02:14:58.554Z,7.03
2023-05-08T02:17:31.220Z,6.80
2023-05-08T02:20:03.809Z,6.87
2023-05-08T02:22:37.321Z,7.87
2023-05-08T02:25:09.285Z,7.08
2023-05-08T02:27:41.858Z,7.15
2023-05-08T02:30:15.473Z,7.10
2023-05-08T02:32:49.053Z,6.92
2023-05-08T02:35:22.288Z,7.60
2023-05-08T02:37:58.450Z,6.20
2023-05-08T02:40:31.216Z,6.95
2023-05-08T02:43:02.452Z,6.83
2023-05-08T02:45:41.400Z,7.40
2023-05-08T02:48:18.356Z,7.53
2023-05-08T02:51:12.448Z,6.35
2023-05-08T02:53:46.226Z,6.70
2023-05-08T02:56:25.107Z,6.55
2023-05-08T02:59:04.789Z,6.62
2023-05-08T03:01:38.075Z,5.70
2023-05-08T03:04:11.544Z,6.22
2023-05-08T03:06:50.257Z,6.83
2023-05-08T03:09:27.203Z,6.10
2023-05-08T03:12:00.616Z,5.33
2023-05-08T03:14:32.450Z,5.60
2023-05-08T03:17:05.060Z,5.60
2023-05-08T03:19:38.451Z,6.28
2023-05-08T03:22:11.177Z,5.72
2023-05-08T03:24:44.690Z,5.40
2023-05-08T03:27:17.004Z,5.35
2023-05-08T03:29:49.685Z,6.03
2023-05-08T03:32:21.112Z,5.78
2023-05-08T03:34:53.515Z,5.55
2023-05-08T03:37:24.630Z,5.75
2023-05-08T03:39:55.577Z,6.28
2023-05-08T03:42:28.167Z,7.15
2023-05-08T03:45:01.069Z,6.65
2023-05-08T03:47:32.446Z,7.55
2023-05-08T03:50:03.648Z,6.62
2023-05-08T03:52:35.772Z,6.53
2023-05-08T03:55:07.168Z,5.62
2023-05-08T03:58:07.607Z,5.97
2023-05-08T04:00:43.632Z,6.30
2023-05-08T04:03:30.342Z,6.35
2023-05-08T04:06:04.020Z,5.53
2023-05-08T04:08:37.286Z,5.37
2023-05-08T04:11:10.531Z,5.03
2023-05-08T04:13:44.629Z,5.53
2023-05-08T04:16:29.902Z,4.92
2023-05-08T04:19:06.389Z,7.00
2023-05-08T04:24:10.373Z,6.33
2023-05-08T04:26:42.211Z,6.47
2023-05-08T04:29:13.402Z,6.87
2023-05-08T04:31:44.692Z,5.35
2023-05-08T04:34:16.283Z,5.60
2023-05-08T04:36:49.160Z,5.80
2023-05-08T04:39:19.523Z,5.83
2023-05-08T04:41:51.730Z,7.75
2023-05-08T04:44:23.033Z,9.00
2023-05-08T04:46:56.813Z,11.68
2023-05-08T04:49:28.132Z,11.78
2023-05-08T04:51:59.706Z,12.00
2023-05-08T04:54:30.579Z,12.20
2023-05-08T04:57:01.637Z,11.15
2023-05-08T04:59:32.500Z,10.23
2023-05-08T05:02:08.967Z,13.08
2023-05-08T05:10:19.220Z,9.38
2023-05-08T05:13:10.673Z,7.80
2023-05-08T05:15:36.315Z,8.80
2023-05-08T05:18:14.320Z,8.70
2023-05-08T05:20:42.286Z,8.85
2023-05-08T05:23:22.466Z,8.75
2023-05-08T05:25:58.906Z,8.43
2023-05-08T05:31:03.111Z,7.42
2023-05-08T05:33:36.233Z,7.65
2023-05-08T05:36:08.356Z,6.92
2023-05-08T05:38:46.690Z,7.20
2023-05-08T05:41:22.948Z,7.58
2023-05-08T05:43:57.960Z,7.58
2023-05-08T05:46:36.386Z,9.50
2023-05-08T05:49:05.561Z,9.10
2023-05-08T05:52:12.950Z,7.80
2023-05-08T05:54:15.724Z,7.83
2023-05-08T05:56:46.671Z,7.85
2023-05-08T05:59:19.117Z,8.60
2023-05-08T06:01:56.309Z,8.65
2023-05-08T06:04:34.796Z,8.35
2023-05-08T06:07:02.957Z,9.20
2023-05-08T06:09:34.885Z,8.35
2023-05-08T06:12:06.469Z,7.70
2023-05-08T06:14:37.690Z,7.62
2023-05-08T06:17:08.828Z,8.05
2023-05-08T06:19:39.782Z,8.48
2023-05-08T06:22:18.161Z,7.92
2023-05-08T06:24:54.827Z,8.48
2023-05-08T06:27:25.695Z,8.18
2023-05-08T06:30:08.921Z,8.25
2023-05-08T06:32:40.062Z,7.45
2023-05-08T06:35:13.739Z,7.30
2023-05-08T06:37:45.043Z,7.45
2023-05-08T06:40:16.974Z,7.78
2023-05-08T06:42:48.594Z,7.90
2023-05-08T06:45:22.645Z,7.90
2023-05-08T06:47:53.747Z,7.50
2023-05-08T06:50:25.152Z,7.58
2023-05-08T06:53:03.396Z,8.05
2023-05-08T06:55:28.528Z,7.25
2023-05-08T06:57:59.762Z,7.40
2023-05-08T07:00:31.151Z,8.78
2023-05-08T07:03:02.279Z,8.43
2023-05-08T07:05:33.645Z,8.65
2023-05-08T07:08:08.893Z,8.70
2023-05-08T07:17:08.528Z,9.60
2023-05-08T07:22:10.127Z,9.75
2023-05-08T07:24:40.962Z,9.63
2023-05-08T07:27:11.725Z,10.05
2023-05-08T07:29:43.635Z,9.28
2023-05-08T07:32:14.633Z,8.78
2023-05-08T07:34:45.471Z,8.05
2023-05-08T07:37:16.915Z,8.20
2023-05-08T07:39:48.734Z,8.63
2023-05-08T07:42:19.990Z,7.55
2023-05-08T07:44:54.943Z,7.75
2023-05-08T07:47:25.929Z,7.35
2023-05-08T07:49:57.032Z,8.38
2023-05-08T07:52:28.369Z,7.80
2023-05-08T07:54:59.996Z,7.75
2023-05-08T07:57:32.462Z,7.75
2023-05-08T08:00:04.692Z,7.95
2023-05-08T08:02:35.575Z,8.50
2023-05-08T08:05:07.291Z,8.13
2023-05-08T08:07:38.083Z,7.62
2023-05-08T08:10:11.131Z,8.20
2023-05-08T08:12:43.749Z,9.03
2023-05-08T08:15:14.875Z,7.78
2023-05-08T08:17:47.006Z,9.13
2023-05-08T08:20:18.330Z,8.33
2023-05-08T08:22:49.489Z,8.65
2023-05-08T08:25:20.202Z,9.23
2023-05-08T08:27:50.917Z,9.60
2023-05-08T08:30:21.848Z,9.20
2023-05-08T08:32:52.586Z,9.20
2023-05-08T08:35:25.591Z,8.65
2023-05-08T08:37:56.321Z,8.88
2023-05-08T08:40:27.733Z,9.23
2023-05-08T08:42:58.744Z,8.08
2023-05-08T08:45:29.800Z,8.75
2023-05-08T08:48:03.126Z,9.20
2023-05-08T08:50:35.412Z,8.85
2023-05-08T08:53:18.343Z,9.95
2023-05-08T08:55:51.421Z,9.08
2023-05-08T08:58:27.767Z,8.23
2023-05-08T09:00:59.536Z,7.72
2023-05-08T09:03:31.093Z,8.15
2023-05-08T09:06:05.427Z,9.08
2023-05-08T09:08:36.832Z,9.10
2023-05-08T09:11:07.668Z,9.33
2023-05-08T09:13:38.517Z,9.23
2023-05-08T09:16:09.881Z,9.38
2023-05-08T09:18:40.721Z,8.68
2023-05-08T09:21:11.648Z,7.92
2023-05-08T09:24:00.932Z,8.95
2023-05-08T09:26:37.110Z,10.05
2023-05-08T09:29:23.733Z,8.78
2023-05-08T09:31:55.805Z,8.33
2023-05-08T09:34:29.684Z,8.10
2023-05-08T09:37:24.575Z,8.85
2023-05-08T09:39:57.627Z,8.88
2023-05-08T09:42:35.663Z,9.00
2023-05-08T09:45:07.098Z,9.25
2023-05-08T09:47:41.609Z,8.83
2023-05-08T09:50:34.277Z,9.55
2023-05-08T09:53:05.667Z,9.58
2023-05-08T09:55:49.607Z,8.60
2023-05-08T09:58:34.573Z,9.78
2023-05-08T10:01:40.168Z,10.23
2023-05-08T10:06:41.163Z,10.15
2023-05-08T10:09:18.771Z,10.08
2023-05-08T10:11:54.450Z,9.80
2023-05-08T10:14:28.399Z,9.87
2023-05-08T10:17:00.281Z,9.25
2023-05-08T10:19:31.559Z,9.48
2023-05-08T10:22:09.324Z,9.05
2023-05-08T10:25:08.062Z,9.08
2023-05-08T10:27:39.680Z,9.58
2023-05-08T10:30:28.630Z,9.60
2023-05-08T10:33:00.589Z,9.78
2023-05-08T10:35:33.102Z,9.50
2023-05-08T10:38:05.258Z,9.60
2023-05-08T10:40:36.623Z,9.85
2023-05-08T10:43:10.887Z,9.33
2023-05-08T10:45:55.921Z,9.35
2023-05-08T10:48:47.467Z,9.65
2023-05-08T10:51:33.219Z,9.48
2023-05-08T10:54:23.783Z,10.45
2023-05-08T10:56:54.488Z,8.93
2023-05-08T10:59:25.736Z,10.18
2023-05-08T11:01:59.231Z,9.48
2023-05-08T11:04:32.798Z,10.63
2023-05-08T11:07:05.551Z,10.05
2023-05-08T11:09:48.035Z,9.45
2023-05-08T11:12:27.217Z,10.55
2023-05-08T11:18:25.047Z,9.93
2023-05-08T11:21:00.868Z,10.13
2023-05-08T11:23:35.270Z,10.17
2023-05-08T11:26:10.763Z,9.83
2023-05-08T11:28:58.972Z,11.35
2023-05-08T11:31:48.614Z,10.32
2023-05-08T11:35:00.964Z,12.53
2023-05-08T11:37:32.157Z,10.50
2023-05-08T11:43:26.723Z,12.67
2023-05-08T11:45:57.925Z,11.50
2023-05-08T11:54:37.508Z,12.13
2023-05-08T11:57:08.417Z,11.48
2023-05-08T12:00:15.202Z,10.58
2023-05-08T12:02:44.442Z,10.58
2023-05-08T12:05:35.169Z,10.63
2023-05-08T12:08:07.418Z,10.23
2023-05-08T12:11:33.529Z,10.70
2023-05-08T12:14:06.347Z,16.42
2023-05-08T12:16:45.473Z,14.03
2023-05-08T12:28:40.334Z,13.30
2023-05-08T12:31:16.289Z,13.60
2023-05-08T12:36:38.975Z,13.70
2023-05-08T12:39:29.085Z,13.98
2023-05-08T12:42:38.437Z,13.40
2023-05-08T12:46:03.186Z,14.18
2023-05-08T12:51:55.999Z,11.22
2023-05-08T12:54:35.909Z,11.63
2023-05-08T12:57:24.257Z,13.10
2023-05-08T13:00:04.734Z,12.20
2023-05-08T13:02:59.040Z,12.35
2023-05-08T13:06:15.859Z,11.93
2023-05-08T13:22:03.774Z,11.35
2023-05-08T13:24:40.104Z,12.50
2023-05-08T13:30:33.798Z,12.20
2023-05-08T13:33:22.956Z,12.15
2023-05-08T13:36:17.298Z,12.98
2023-05-08T13:39:02.558Z,12.63
2023-05-08T13:41:36.926Z,11.20
2023-05-08T13:44:07.248Z,9.58
2023-05-08T13:46:42.540Z,10.05
2023-05-08T13:52:09.633Z,12.40
2023-05-08T13:56:02.258Z,10.58
2023-05-08T13:58:04.659Z,12.03
2023-05-08T14:00:44.746Z,11.75
2023-05-08T14:03:21.417Z,15.48
2023-05-08T14:11:49.611Z,15.28
2023-05-08T14:21:18.387Z,13.60
2023-05-08T14:23:58.185Z,13.98
2023-05-08T14:26:09.823Z,12.65
2023-05-08T14:28:44.171Z,12.10
2023-05-08T14:31:23.228Z,10.85
2023-05-08T14:36:53.805Z,10.88
2023-05-08T14:45:36.962Z,11.45
2023-05-08T14:52:06.743Z,12.20
2023-05-08T15:01:41.270Z,12.13
2023-05-08T15:04:18.684Z,12.63
2023-05-08T15:06:53.652Z,11.28
2023-05-08T15:09:24.811Z,12.18
2023-05-08T15:12:01.128Z,11.30
2023-05-08T15:18:20.681Z,11.43
2023-05-08T15:21:19.546Z,11.45
2023-05-08T15:24:13.320Z,11.10
2023-05-08T15:26:26.760Z,10.88
2023-05-08T15:29:04.921Z,10.18
2023-05-08T15:31:35.854Z,10.08
2023-05-08T15:34:10.737Z,9.13
2023-05-08T15:36:42.696Z,9.40
2023-05-08T15:39:13.539Z,8.75
2023-05-08T15:41:45.513Z,9.28
2023-05-08T15:44:16.546Z,8.50
2023-05-08T15:46:50.225Z,8.13
2023-05-08T15:52:16.252Z,7.83
2023-05-08T15:54:47.591Z,8.30
2023-05-08T15:57:18.940Z,7.75
2023-05-08T16:00:01.164Z,7.65
2023-05-08T16:08:32.123Z,7.37
2023-05-08T16:11:04.546Z,8.05
2023-05-08T16:13:38.773Z,8.25
2023-05-08T16:16:10.343Z,8.13
2023-05-08T16:18:43.555Z,7.83
2023-05-08T16:21:17.724Z,7.75
2023-05-08T16:23:51.773Z,7.50
2023-05-08T16:26:23.600Z,8.48
2023-05-08T16:28:57.534Z,7.75
2023-05-08T16:31:32.259Z,8.25
2023-05-08T16:34:03.023Z,8.28
2023-05-08T16:39:26.320Z,7.75
2023-05-08T16:42:00.624Z,7.72
2023-05-08T16:44:31.580Z,7.83
2023-05-08T16:47:23.824Z,8.40
2023-05-08T16:52:53.383Z,7.95
2023-05-08T16:55:27.138Z,8.10
2023-05-08T16:58:05.611Z,7.72
2023-05-08T17:00:38.081Z,8.20
2023-05-08T17:03:08.561Z,8.50
2023-05-08T17:05:46.893Z,8.50
2023-05-08T17:08:17.433Z,8.28
2023-05-08T17:10:55.504Z,8.03
2023-05-08T17:13:26.340Z,7.83
2023-05-08T17:15:57.510Z,8.10
2023-05-08T17:18:28.428Z,8.30
2023-05-08T17:21:09.821Z,8.30
2023-05-08T17:23:45.815Z,8.15
2023-05-08T17:29:29.200Z,8.83
2023-05-08T17:52:45.755Z,9.13
2023-05-08T17:58:22.119Z,8.78
2023-05-08T18:00:53.215Z,9.08
2023-05-08T18:03:24.469Z,8.58
2023-05-08T18:05:59.457Z,9.18
2023-05-08T18:08:30.351Z,8.25
2023-05-08T18:11:05.615Z,8.25
2023-05-08T18:13:48.753Z,8.23
2023-05-08T18:16:19.713Z,9.10
2023-05-08T18:19:00.841Z,8.50
2023-05-08T18:21:34.279Z,8.08
2023-05-08T18:24:05.188Z,7.90
2023-05-08T18:26:35.951Z,8.73
2023-05-08T18:29:19.380Z,8.23
2023-05-08T18:31:50.559Z,8.18
2023-05-08T18:34:23.420Z,8.68
2023-05-08T18:36:56.156Z,8.93
2023-05-08T18:39:30.262Z,8.50
2023-05-08T18:42:03.188Z,8.90
2023-05-08T18:44:35.648Z,8.55
2023-05-08T18:47:06.427Z,9.03
2023-05-08T18:49:38.595Z,8.78
2023-05-08T18:52:09.442Z,9.03
2023-05-08T18:54:42.479Z,8.53
2023-05-08T18:57:13.204Z,9.35
2023-05-08T18:59:43.979Z,9.13
2023-05-08T19:02:14.814Z,8.78
2023-05-08T19:04:45.828Z,8.98
2023-05-08T19:07:16.751Z,9.00
2023-05-08T19:09:49.485Z,9.18
2023-05-08T19:12:28.282Z,8.75
2023-05-08T19:15:00.805Z,9.05
2023-05-08T19:17:31.060Z,8.83
2023-05-08T19:20:05.353Z,8.68
2023-05-08T19:22:40.069Z,8.88
2023-05-08T19:25:14.445Z,8.90
2023-05-08T19:27:47.383Z,8.85
2023-05-08T19:33:09.842Z,9.40
2023-05-08T19:35:41.187Z,8.93
2023-05-08T19:41:02.483Z,8.55
2023-05-08T19:43:34.490Z,9.30
2023-05-08T19:46:05.479Z,9.03
2023-05-08T19:48:36.386Z,9.88
2023-05-08T19:51:10.705Z,8.88
2023-05-08T19:53:41.728Z,9.23
2023-05-08T19:56:12.474Z,9.08
2023-05-08T19:58:43.246Z,9.15
2023-05-08T20:01:14.166Z,9.30
2023-05-08T20:03:58.963Z,9.58
2023-05-08T20:06:32.353Z,8.93
2023-05-08T20:09:03.127Z,9.50
2023-05-08T20:11:33.898Z,9.75
2023-05-08T20:14:04.639Z,9.48
2023-05-08T20:16:35.483Z,9.95
2023-05-08T20:19:06.427Z,9.30
2023-05-08T20:21:37.473Z,9.38
2023-05-08T20:24:09.113Z,9.55
2023-05-08T20:26:40.734Z,10.25
2023-05-08T20:29:11.975Z,9.50
2023-05-08T20:31:45.991Z,9.70
2023-05-08T20:34:21.911Z,10.00
2023-05-08T20:39:47.105Z,10.32
2023-05-08T20:42:18.015Z,9.80
2023-05-08T20:44:48.765Z,10.20
2023-05-08T20:47:19.528Z,10.48
2023-05-08T20:49:50.260Z,9.55
2023-05-08T20:52:21.080Z,11.00
2023-05-08T20:54:51.840Z,10.38
2023-05-08T20:57:22.566Z,10.43
2023-05-08T21:00:03.623Z,10.50
2023-05-08T21:02:54.855Z,10.38
2023-05-08T21:05:32.324Z,9.88
2023-05-08T21:11:00.189Z,10.25
2023-05-08T21:13:31.086Z,10.48
2023-05-08T21:16:01.931Z,10.48
2023-05-08T21:18:32.901Z,9.98
2023-05-08T21:21:03.809Z,10.82
2023-05-08T21:23:34.583Z,10.65
2023-05-08T21:26:05.347Z,10.68
2023-05-08T21:28:36.359Z,10.65
2023-05-08T21:31:07.331Z,10.82
2023-05-08T21:33:38.252Z,11.12
2023-05-08T21:36:09.481Z,10.95
2023-05-08T21:38:40.311Z,11.03
2023-05-08T21:41:11.670Z,11.50
2023-05-08T21:43:42.614Z,12.00
2023-05-08T21:46:13.520Z,11.65
2023-05-08T21:48:44.363Z,11.45
2023-05-08T21:51:15.906Z,12.40
2023-05-08T21:53:46.617Z,12.68
2023-05-08T21:56:17.851Z,12.03
2023-05-08T21:58:48.600Z,12.03
2023-05-08T22:01:19.789Z,11.10
2023-05-08T22:03:52.231Z,10.45
2023-05-08T22:06:23.085Z,11.65
2023-05-08T22:09:04.488Z,11.90
2023-05-08T22:11:35.368Z,12.20
2023-05-08T22:14:06.100Z,12.45
2023-05-08T22:19:25.818Z,11.95
2023-05-08T22:21:56.542Z,12.05
2023-05-08T22:24:28.034Z,11.90
2023-05-08T22:26:58.886Z,12.58
2023-05-08T22:29:29.624Z,11.95
2023-05-08T22:32:00.515Z,12.35
2023-05-08T22:34:31.492Z,12.55
2023-05-08T22:37:02.334Z,12.55
2023-05-08T22:39:33.180Z,12.13
2023-05-08T22:42:05.350Z,12.35
2023-05-08T22:44:36.320Z,11.97
2023-05-08T22:47:12.961Z,13.03
2023-05-08T22:52:19.757Z,12.73
2023-05-08T22:57:51.770Z,15.72
2023-05-08T23:00:23.261Z,14.15
2023-05-08T23:02:54.396Z,13.13
2023-05-08T23:05:25.623Z,14.45
2023-05-08T23:07:56.444Z,15.03
2023-05-08T23:10:27.195Z,15.13
2023-05-08T23:12:57.992Z,14.38
2023-05-08T23:15:28.917Z,13.80
2023-05-08T23:17:59.868Z,13.62
2023-05-08T23:23:22.011Z,17.30
2023-05-08T23:28:57.539Z,19.77
2023-05-08T23:37:06.952Z,18.10
2023-05-08T23:39:49.054Z,18.92
2023-05-08T23:45:22.496Z,20.43
2023-05-08T23:47:53.032Z,18.75
2023-05-08T23:56:15.309Z,16.87
